sensor_id;sensor_type;location;lat;lon;timestamp;pressure;altitude;pressure_sealevel;temperature;humidity
11672;BME280;5892;43.412;24.612;2023-05-24T00:02:24;99687.44;;;14.76;100.00
11672;BME280;5892;43.412;24.612;2023-05-24T00:04:52;99682.31;;;14.75;100.00
11672;BME280;5892;43.412;24.612;2023-05-24T00:07:19;99690.94;;;14.73;100.00
11672;BME280;5892;43.412;24.612;2023-05-24T00:09:46;99683.16;;;14.63;100.00
11672;BME280;5892;43.412;24.612;2023-05-24T00:12:13;99695.09;;;14.67;100.00
11672;BME280;5892;43.412;24.612;2023-05-24T00:14:40;99691.19;;;14.68;100.00
11672;BME280;5892;43.412;24.612;2023-05-24T00:17:08;99678.47;;;14.64;100.00
11672;BME280;5892;43.412;24.612;2023-05-24T00:19:35;99687.00;;;14.59;100.00
11672;BME280;5892;43.412;24.612;2023-05-24T00:22:03;99687.31;;;14.57;100.00
11672;BME280;5892;43.412;24.612;2023-05-24T00:24:30;99695.69;;;14.61;100.00
11672;BME280;5892;43.412;24.612;2023-05-24T00:26:56;99690.00;;;14.54;100.00
11672;BME280;5892;43.412;24.612;2023-05-24T00:29:23;99686.94;;;14.43;100.00
11672;BME280;5892;43.412;24.612;2023-05-24T00:31:50;99619.91;;;13.99;100.00
11672;BME280;5892;43.412;24.612;2023-05-24T00:34:19;99683.72;;;14.41;100.00
11672;BME280;5892;43.412;24.612;2023-05-24T00:36:45;99691.41;;;14.35;100.00
11672;BME280;5892;43.412;24.612;2023-05-24T00:39:12;99673.66;;;14.21;100.00
11672;BME280;5892;43.412;24.612;2023-05-24T00:41:39;99689.72;;;14.31;100.00
11672;BME280;5892;43.412;24.612;2023-05-24T00:44:06;99687.03;;;14.34;100.00
11672;BME280;5892;43.412;24.612;2023-05-24T00:46:35;99686.94;;;14.31;100.00
11672;BME280;5892;43.412;24.612;2023-05-24T00:49:03;99692.47;;;14.31;100.00
11672;BME280;5892;43.412;24.612;2023-05-24T00:51:32;99694.81;;;14.17;100.00
11672;BME280;5892;43.412;24.612;2023-05-24T00:54:01;99695.16;;;14.15;100.00
11672;BME280;5892;43.412;24.612;2023-05-24T00:56:28;99692.88;;;14.17;100.00
11672;BME280;5892;43.412;24.612;2023-05-24T00:58:56;99684.53;;;14.02;100.00
11672;BME280;5892;43.412;24.612;2023-05-24T01:01:23;99693.69;;;14.06;100.00
11672;BME280;5892;43.412;24.612;2023-05-24T01:03:51;99706.19;;;14.15;100.00
11672;BME280;5892;43.412;24.612;2023-05-24T01:06:18;99705.50;;;14.18;100.00
11672;BME280;5892;43.412;24.612;2023-05-24T01:09:05;99707.19;;;14.23;100.00
11672;BME280;5892;43.412;24.612;2023-05-24T01:11:41;99713.47;;;14.35;100.00
11672;BME280;5892;43.412;24.612;2023-05-24T01:14:17;99711.66;;;14.27;100.00
11672;BME280;5892;43.412;24.612;2023-05-24T01:16:51;99713.41;;;14.20;100.00
11672;BME280;5892;43.412;24.612;2023-05-24T01:19:51;99707.88;;;14.20;100.00
11672;BME280;5892;43.412;24.612;2023-05-24T01:22:44;99707.25;;;13.98;100.00
11672;BME280;5892;43.412;24.612;2023-05-24T01:25:29;99705.63;;;13.97;100.00
11672;BME280;5892;43.412;24.612;2023-05-24T01:28:08;99703.81;;;13.89;100.00
11672;BME280;5892;43.412;24.612;2023-05-24T01:30:38;99712.75;;;13.98;100.00
11672;BME280;5892;43.412;24.612;2023-05-24T01:33:05;99708.28;;;13.94;100.00
11672;BME280;5892;43.412;24.612;2023-05-24T01:35:33;99707.94;;;13.95;100.00
11672;BME280;5892;43.412;24.612;2023-05-24T01:38:04;99709.00;;;13.91;100.00
11672;BME280;5892;43.412;24.612;2023-05-24T01:40:31;99711.50;;;13.96;100.00
11672;BME280;5892;43.412;24.612;2023-05-24T01:43:03;99702.13;;;13.85;100.00
11672;BME280;5892;43.412;24.612;2023-05-24T01:45:34;99720.59;;;13.96;100.00
11672;BME280;5892;43.412;24.612;2023-05-24T01:48:10;99698.13;;;13.70;100.00
11672;BME280;5892;43.412;24.612;2023-05-24T01:50:45;99708.91;;;13.75;100.00
11672;BME280;5892;43.412;24.612;2023-05-24T01:53:17;99709.81;;;13.79;100.00
11672;BME280;5892;43.412;24.612;2023-05-24T01:55:47;99708.53;;;13.77;100.00
11672;BME280;5892;43.412;24.612;2023-05-24T01:58:15;99698.47;;;13.69;100.00
11672;BME280;5892;43.412;24.612;2023-05-24T02:00:45;99709.25;;;13.86;100.00
11672;BME280;5892;43.412;24.612;2023-05-24T02:03:13;99706.25;;;13.79;100.00
11672;BME280;5892;43.412;24.612;2023-05-24T02:05:40;99725.19;;;13.80;100.00
11672;BME280;5892;43.412;24.612;2023-05-24T02:08:08;99719.56;;;13.77;100.00
11672;BME280;5892;43.412;24.612;2023-05-24T02:10:35;99710.84;;;13.63;100.00
11672;BME280;5892;43.412;24.612;2023-05-24T02:13:04;99722.66;;;13.63;100.00
11672;BME280;5892;43.412;24.612;2023-05-24T02:15:31;99722.44;;;13.56;100.00
11672;BME280;5892;43.412;24.612;2023-05-24T02:18:01;99717.38;;;13.46;100.00
11672;BME280;5892;43.412;24.612;2023-05-24T02:20:28;99713.72;;;13.42;100.00
11672;BME280;5892;43.412;24.612;2023-05-24T02:22:55;99722.09;;;13.33;100.00
11672;BME280;5892;43.412;24.612;2023-05-24T02:25:23;99580.00;;;12.44;100.00
11672;BME280;5892;43.412;24.612;2023-05-24T02:27:50;99718.09;;;13.43;100.00
11672;BME280;5892;43.412;24.612;2023-05-24T02:30:17;99702.72;;;13.42;100.00
11672;BME280;5892;43.412;24.612;2023-05-24T02:32:44;99702.38;;;13.31;100.00
11672;BME280;5892;43.412;24.612;2023-05-24T02:35:12;99715.09;;;13.36;100.00
11672;BME280;5892;43.412;24.612;2023-05-24T02:37:39;99722.31;;;13.40;100.00
11672;BME280;5892;43.412;24.612;2023-05-24T02:40:07;99724.72;;;13.42;100.00
11672;BME280;5892;43.412;24.612;2023-05-24T02:42:34;99725.88;;;13.41;100.00
11672;BME280;5892;43.412;24.612;2023-05-24T02:45:01;99721.88;;;13.38;100.00
11672;BME280;5892;43.412;24.612;2023-05-24T02:47:27;99717.84;;;13.36;100.00
11672;BME280;5892;43.412;24.612;2023-05-24T02:49:55;99709.72;;;13.27;100.00
11672;BME280;5892;43.412;24.612;2023-05-24T02:52:24;99726.00;;;13.44;100.00
11672;BME280;5892;43.412;24.612;2023-05-24T02:54:51;99724.06;;;13.45;100.00
11672;BME280;5892;43.412;24.612;2023-05-24T02:57:20;99729.19;;;13.46;100.00
11672;BME280;5892;43.412;24.612;2023-05-24T02:59:47;99724.50;;;13.47;100.00
11672;BME280;5892;43.412;24.612;2023-05-24T03:02:14;99728.31;;;13.54;100.00
11672;BME280;5892;43.412;24.612;2023-05-24T03:04:42;99723.81;;;13.62;100.00
11672;BME280;5892;43.412;24.612;2023-05-24T03:07:09;99721.16;;;13.90;100.00
11672;BME280;5892;43.412;24.612;2023-05-24T03:09:37;99719.28;;;14.06;100.00
11672;BME280;5892;43.412;24.612;2023-05-24T03:12:05;99696.19;;;14.23;100.00
11672;BME280;5892;43.412;24.612;2023-05-24T03:14:32;99722.88;;;14.74;100.00
11672;BME280;5892;43.412;24.612;2023-05-24T03:16:59;99731.19;;;15.06;100.00
11672;BME280;5892;43.412;24.612;2023-05-24T03:19:26;99731.22;;;15.37;100.00
11672;BME280;5892;43.412;24.612;2023-05-24T03:21:53;99729.66;;;15.87;100.00
11672;BME280;5892;43.412;24.612;2023-05-24T03:24:20;99728.22;;;16.28;100.00
11672;BME280;5892;43.412;24.612;2023-05-24T03:26:48;99726.75;;;16.69;100.00
11672;BME280;5892;43.412;24.612;2023-05-24T03:29:15;99731.41;;;17.07;100.00
11672;BME280;5892;43.412;24.612;2023-05-24T03:31:42;99732.47;;;17.21;100.00
11672;BME280;5892;43.412;24.612;2023-05-24T03:34:09;99731.34;;;17.71;100.00
11672;BME280;5892;43.412;24.612;2023-05-24T03:36:35;99735.88;;;18.09;100.00
11672;BME280;5892;43.412;24.612;2023-05-24T03:39:02;99727.53;;;18.36;100.00
11672;BME280;5892;43.412;24.612;2023-05-24T03:41:30;99720.94;;;18.47;100.00
11672;BME280;5892;43.412;24.612;2023-05-24T03:43:58;99724.75;;;19.02;97.12
11672;BME280;5892;43.412;24.612;2023-05-24T03:46:25;99733.84;;;19.36;94.45
11672;BME280;5892;43.412;24.612;2023-05-24T03:48:52;99740.91;;;19.74;91.51
11672;BME280;5892;43.412;24.612;2023-05-24T03:51:19;99727.16;;;19.92;90.41
11672;BME280;5892;43.412;24.612;2023-05-24T03:53:48;99736.38;;;20.10;89.80
11672;BME280;5892;43.412;24.612;2023-05-24T03:56:14;99727.56;;;20.66;86.17
11672;BME280;5892;43.412;24.612;2023-05-24T03:58:41;99667.81;;;20.36;84.92
11672;BME280;5892;43.412;24.612;2023-05-24T04:01:09;99729.19;;;20.82;84.06
11672;BME280;5892;43.412;24.612;2023-05-24T04:03:37;99734.78;;;20.82;83.89
11672;BME280;5892;43.412;24.612;2023-05-24T04:06:05;99737.94;;;20.80;84.61
11672;BME280;5892;43.412;24.612;2023-05-24T04:08:32;99741.81;;;20.54;86.31
11672;BME280;5892;43.412;24.612;2023-05-24T04:10:59;99729.94;;;20.68;85.55
11672;BME280;5892;43.412;24.612;2023-05-24T04:13:25;99737.69;;;21.24;82.74
11672;BME280;5892;43.412;24.612;2023-05-24T04:15:52;99736.88;;;21.31;82.12
11672;BME280;5892;43.412;24.612;2023-05-24T04:18:24;99744.47;;;21.73;79.82
11672;BME280;5892;43.412;24.612;2023-05-24T04:20:51;99732.91;;;21.99;72.95
11672;BME280;5892;43.412;24.612;2023-05-24T04:23:18;99752.44;;;21.95;72.74
11672;BME280;5892;43.412;24.612;2023-05-24T04:25:46;99758.41;;;21.94;73.38
11672;BME280;5892;43.412;24.612;2023-05-24T04:28:13;99748.84;;;21.98;72.62
11672;BME280;5892;43.412;24.612;2023-05-24T04:30:40;99741.25;;;21.88;73.82
11672;BME280;5892;43.412;24.612;2023-05-24T04:33:10;99758.38;;;22.15;72.99
11672;BME280;5892;43.412;24.612;2023-05-24T04:35:38;99758.81;;;22.07;74.19
11672;BME280;5892;43.412;24.612;2023-05-24T04:38:06;99756.41;;;22.12;74.08
11672;BME280;5892;43.412;24.612;2023-05-24T04:40:32;99766.38;;;21.92;75.98
11672;BME280;5892;43.412;24.612;2023-05-24T04:42:59;99765.97;;;21.90;76.11
11672;BME280;5892;43.412;24.612;2023-05-24T04:45:27;99769.56;;;22.12;75.02
11672;BME280;5892;43.412;24.612;2023-05-24T04:47:55;99776.34;;;22.04;74.39
11672;BME280;5892;43.412;24.612;2023-05-24T04:50:22;99762.00;;;22.12;73.12
11672;BME280;5892;43.412;24.612;2023-05-24T04:52:50;99740.38;;;22.41;71.62
11672;BME280;5892;43.412;24.612;2023-05-24T04:55:17;99768.22;;;22.62;64.60
11672;BME280;5892;43.412;24.612;2023-05-24T04:57:44;99769.00;;;22.77;64.90
11672;BME280;5892;43.412;24.612;2023-05-24T05:00:12;99762.50;;;22.98;64.26
11672;BME280;5892;43.412;24.612;2023-05-24T05:02:39;99764.56;;;22.90;64.11
11672;BME280;5892;43.412;24.612;2023-05-24T05:05:06;99763.34;;;22.95;63.84
11672;BME280;5892;43.412;24.612;2023-05-24T05:07:33;99769.00;;;22.77;64.54
11672;BME280;5892;43.412;24.612;2023-05-24T05:10:01;99782.38;;;23.17;62.06
11672;BME280;5892;43.412;24.612;2023-05-24T05:12:28;99759.16;;;23.28;60.80
11672;BME280;5892;43.412;24.612;2023-05-24T05:14:55;99777.88;;;23.34;61.32
11672;BME280;5892;43.412;24.612;2023-05-24T05:17:25;99770.88;;;23.01;62.02
11672;BME280;5892;43.412;24.612;2023-05-24T05:19:53;99777.66;;;23.00;61.40
11672;BME280;5892;43.412;24.612;2023-05-24T05:22:20;99782.41;;;23.10;61.77
11672;BME280;5892;43.412;24.612;2023-05-24T05:24:47;99775.25;;;23.06;62.28
11672;BME280;5892;43.412;24.612;2023-05-24T05:27:15;99781.59;;;23.17;61.72
11672;BME280;5892;43.412;24.612;2023-05-24T05:29:42;99783.22;;;23.07;61.65
11672;BME280;5892;43.412;24.612;2023-05-24T05:32:09;99782.44;;;23.07;62.59
11672;BME280;5892;43.412;24.612;2023-05-24T05:34:35;99770.34;;;23.24;63.09
11672;BME280;5892;43.412;24.612;2023-05-24T05:37:03;99780.84;;;23.68;61.54
11672;BME280;5892;43.412;24.612;2023-05-24T05:39:29;99786.22;;;23.93;60.29
11672;BME280;5892;43.412;24.612;2023-05-24T05:41:57;99787.94;;;24.28;58.46
11672;BME280;5892;43.412;24.612;2023-05-24T05:44:25;99789.50;;;24.29;57.88
11672;BME280;5892;43.412;24.612;2023-05-24T05:46:52;99775.53;;;23.84;59.24
11672;BME280;5892;43.412;24.612;2023-05-24T05:49:19;99785.69;;;24.12;59.22
11672;BME280;5892;43.412;24.612;2023-05-24T05:51:46;99787.94;;;24.28;57.71
11672;BME280;5892;43.412;24.612;2023-05-24T05:54:12;99795.69;;;24.51;58.98
11672;BME280;5892;43.412;24.612;2023-05-24T05:56:39;99800.66;;;24.36;59.69
11672;BME280;5892;43.412;24.612;2023-05-24T05:59:09;99797.03;;;24.39;59.64
11672;BME280;5892;43.412;24.612;2023-05-24T06:01:38;99789.03;;;24.37;61.67
11672;BME280;5892;43.412;24.612;2023-05-24T06:04:05;99793.38;;;24.79;57.66
11672;BME280;5892;43.412;24.612;2023-05-24T06:06:32;99799.41;;;25.08;56.81
11672;BME280;5892;43.412;24.612;2023-05-24T06:08:59;99797.19;;;25.53;55.64
11672;BME280;5892;43.412;24.612;2023-05-24T06:11:26;99798.75;;;25.54;55.89
11672;BME280;5892;43.412;24.612;2023-05-24T06:13:53;99783.88;;;25.30;56.07
11672;BME280;5892;43.412;24.612;2023-05-24T06:16:20;99799.28;;;25.46;56.41
11672;BME280;5892;43.412;24.612;2023-05-24T06:18:48;99804.06;;;25.49;56.54
11672;BME280;5892;43.412;24.612;2023-05-24T06:21:15;99785.53;;;25.55;57.54
11672;BME280;5892;43.412;24.612;2023-05-24T06:23:42;99806.94;;;25.72;57.05
11672;BME280;5892;43.412;24.612;2023-05-24T06:26:09;99801.63;;;25.78;54.43
11672;BME280;5892;43.412;24.612;2023-05-24T06:28:37;99804.81;;;25.80;56.21
11672;BME280;5892;43.412;24.612;2023-05-24T06:31:04;99815.38;;;25.95;54.03
11672;BME280;5892;43.412;24.612;2023-05-24T06:33:31;99812.38;;;25.83;53.48
11672;BME280;5892;43.412;24.612;2023-05-24T06:35:59;99814.31;;;25.86;52.44
11672;BME280;5892;43.412;24.612;2023-05-24T06:38:26;99809.31;;;25.73;54.83
11672;BME280;5892;43.412;24.612;2023-05-24T06:40:53;99824.59;;;25.96;55.27
11672;BME280;5892;43.412;24.612;2023-05-24T06:43:20;99826.44;;;25.25;58.29
11672;BME280;5892;43.412;24.612;2023-05-24T06:45:47;99828.72;;;25.04;59.82
11672;BME280;5892;43.412;24.612;2023-05-24T06:48:14;99833.81;;;24.78;60.77
11672;BME280;5892;43.412;24.612;2023-05-24T06:50:40;99822.75;;;24.64;61.70
11672;BME280;5892;43.412;24.612;2023-05-24T06:53:09;99832.31;;;24.33;62.34
11672;BME280;5892;43.412;24.612;2023-05-24T06:55:36;99814.09;;;24.52;62.75
11672;BME280;5892;43.412;24.612;2023-05-24T06:58:03;99829.56;;;24.26;64.09
11672;BME280;5892;43.412;24.612;2023-05-24T07:00:31;99827.78;;;24.42;64.39
11672;BME280;5892;43.412;24.612;2023-05-24T07:02:58;99831.78;;;23.97;66.80
11672;BME280;5892;43.412;24.612;2023-05-24T07:05:25;99827.03;;;23.90;68.36
11672;BME280;5892;43.412;24.612;2023-05-24T07:07:52;99827.31;;;23.55;68.56
11672;BME280;5892;43.412;24.612;2023-05-24T07:10:20;99790.97;;;23.51;68.17
11672;BME280;5892;43.412;24.612;2023-05-24T07:12:47;99827.38;;;23.99;67.26
11672;BME280;5892;43.412;24.612;2023-05-24T07:15:14;99826.75;;;24.26;65.95
11672;BME280;5892;43.412;24.612;2023-05-24T07:17:41;99807.66;;;24.17;64.73
11672;BME280;5892;43.412;24.612;2023-05-24T07:20:10;99827.84;;;24.35;64.37
11672;BME280;5892;43.412;24.612;2023-05-24T07:22:38;99837.47;;;24.34;64.60
11672;BME280;5892;43.412;24.612;2023-05-24T07:25:06;99820.50;;;24.52;63.29
11672;BME280;5892;43.412;24.612;2023-05-24T07:27:35;99833.66;;;24.93;61.50
11672;BME280;5892;43.412;24.612;2023-05-24T07:30:05;99827.31;;;24.88;61.44
11672;BME280;5892;43.412;24.612;2023-05-24T07:32:32;99808.28;;;25.07;61.04
11672;BME280;5892;43.412;24.612;2023-05-24T07:34:59;99824.34;;;25.33;60.73
11672;BME280;5892;43.412;24.612;2023-05-24T07:37:26;99825.44;;;25.39;59.25
11672;BME280;5892;43.412;24.612;2023-05-24T07:39:54;99817.94;;;25.59;59.72
11672;BME280;5892;43.412;24.612;2023-05-24T07:42:21;99825.53;;;25.62;59.54
11672;BME280;5892;43.412;24.612;2023-05-24T07:44:49;99829.16;;;25.86;58.15
11672;BME280;5892;43.412;24.612;2023-05-24T07:47:16;99830.38;;;26.08;57.26
11672;BME280;5892;43.412;24.612;2023-05-24T07:49:43;99811.16;;;26.07;56.43
11672;BME280;5892;43.412;24.612;2023-05-24T07:52:10;99830.66;;;26.41;57.45
11672;BME280;5892;43.412;24.612;2023-05-24T07:54:37;99829.41;;;26.22;56.63
11672;BME280;5892;43.412;24.612;2023-05-24T07:57:04;99837.97;;;26.35;55.28
11672;BME280;5892;43.412;24.612;2023-05-24T07:59:32;99833.09;;;26.39;55.59
11672;BME280;5892;43.412;24.612;2023-05-24T08:02:00;99835.75;;;26.69;56.64
11672;BME280;5892;43.412;24.612;2023-05-24T08:04:30;99840.22;;;27.06;53.58
11672;BME280;5892;43.412;24.612;2023-05-24T08:06:57;99829.59;;;27.33;53.65
11672;BME280;5892;43.412;24.612;2023-05-24T08:09:26;99830.25;;;27.41;52.85
11672;BME280;5892;43.412;24.612;2023-05-24T08:11:54;99830.06;;;27.48;53.15
11672;BME280;5892;43.412;24.612;2023-05-24T08:14:21;99838.09;;;27.50;50.38
11672;BME280;5892;43.412;24.612;2023-05-24T08:16:48;99820.47;;;27.46;51.93
11672;BME280;5892;43.412;24.612;2023-05-24T08:19:16;99815.50;;;27.53;50.69
11672;BME280;5892;43.412;24.612;2023-05-24T08:21:43;99830.31;;;27.57;50.35
11672;BME280;5892;43.412;24.612;2023-05-24T08:24:10;99826.09;;;27.98;50.22
11672;BME280;5892;43.412;24.612;2023-05-24T08:26:37;99823.22;;;28.17;48.64
11672;BME280;5892;43.412;24.612;2023-05-24T08:29:04;99835.69;;;27.84;44.45
11672;BME280;5892;43.412;24.612;2023-05-24T08:31:34;99834.03;;;28.03;44.68
11672;BME280;5892;43.412;24.612;2023-05-24T08:34:03;99825.06;;;28.24;45.92
11672;BME280;5892;43.412;24.612;2023-05-24T08:36:31;99833.78;;;28.30;46.14
11672;BME280;5892;43.412;24.612;2023-05-24T08:38:58;99834.28;;;28.08;45.67
11672;BME280;5892;43.412;24.612;2023-05-24T08:41:25;99834.13;;;27.47;43.86
11672;BME280;5892;43.412;24.612;2023-05-24T08:43:52;99828.75;;;27.36;45.98
11672;BME280;5892;43.412;24.612;2023-05-24T08:46:23;99840.59;;;27.44;43.58
11672;BME280;5892;43.412;24.612;2023-05-24T08:48:50;99839.16;;;27.20;41.02
11672;BME280;5892;43.412;24.612;2023-05-24T08:51:18;99835.47;;;27.59;41.29
11672;BME280;5892;43.412;24.612;2023-05-24T08:53:48;99812.63;;;27.57;42.97
11672;BME280;5892;43.412;24.612;2023-05-24T08:56:17;99847.47;;;27.95;41.86
11672;BME280;5892;43.412;24.612;2023-05-24T08:58:44;99845.72;;;27.85;40.88
11672;BME280;5892;43.412;24.612;2023-05-24T09:01:13;99846.09;;;28.03;40.57
11672;BME280;5892;43.412;24.612;2023-05-24T09:03:40;99833.91;;;28.06;42.36
11672;BME280;5892;43.412;24.612;2023-05-24T09:06:09;99846.09;;;28.03;40.75
11672;BME280;5892;43.412;24.612;2023-05-24T09:08:39;99835.88;;;28.09;39.06
11672;BME280;5892;43.412;24.612;2023-05-24T09:11:09;99802.34;;;27.99;39.68
11672;BME280;5892;43.412;24.612;2023-05-24T09:13:36;99814.59;;;28.25;39.50
11672;BME280;5892;43.412;24.612;2023-05-24T09:16:04;99836.56;;;27.81;40.87
11672;BME280;5892;43.412;24.612;2023-05-24T09:18:31;99818.97;;;27.77;39.65
11672;BME280;5892;43.412;24.612;2023-05-24T09:20:58;99839.25;;;27.32;40.03
11672;BME280;5892;43.412;24.612;2023-05-24T09:23:25;99839.53;;;27.38;40.80
11672;BME280;5892;43.412;24.612;2023-05-24T09:25:52;99831.44;;;27.60;42.71
11672;BME280;5892;43.412;24.612;2023-05-24T09:28:21;99831.47;;;27.92;42.13
11672;BME280;5892;43.412;24.612;2023-05-24T09:30:57;99830.31;;;28.06;39.75
11672;BME280;5892;43.412;24.612;2023-05-24T09:33:28;99832.16;;;27.96;39.68
11672;BME280;5892;43.412;24.612;2023-05-24T09:35:57;99829.16;;;27.55;39.52
11672;BME280;5892;43.412;24.612;2023-05-24T09:38:25;99831.28;;;27.83;39.81
11672;BME280;5892;43.412;24.612;2023-05-24T09:41:02;99826.38;;;28.03;39.52
11672;BME280;5892;43.412;24.612;2023-05-24T09:43:32;99824.53;;;28.29;38.54
11672;BME280;5892;43.412;24.612;2023-05-24T09:46:01;99817.16;;;28.48;38.59
11672;BME280;5892;43.412;24.612;2023-05-24T09:48:29;99811.38;;;28.39;37.91
11672;BME280;5892;43.412;24.612;2023-05-24T09:50:59;99829.84;;;28.56;38.42
11672;BME280;5892;43.412;24.612;2023-05-24T09:53:28;99822.69;;;28.68;39.34
11672;BME280;5892;43.412;24.612;2023-05-24T09:55:56;99819.44;;;28.53;40.14
11672;BME280;5892;43.412;24.612;2023-05-24T09:58:28;99816.25;;;28.67;40.16
11672;BME280;5892;43.412;24.612;2023-05-24T10:01:04;99804.16;;;28.67;38.64
11672;BME280;5892;43.412;24.612;2023-05-24T10:03:33;99812.78;;;28.47;39.54
11672;BME280;5892;43.412;24.612;2023-05-24T10:06:00;99806.19;;;28.37;38.22
11672;BME280;5892;43.412;24.612;2023-05-24T10:08:29;99808.88;;;28.57;39.76
11672;BME280;5892;43.412;24.612;2023-05-24T10:10:56;99795.81;;;28.34;39.30
11672;BME280;5892;43.412;24.612;2023-05-24T10:13:24;99812.19;;;27.91;39.43
11672;BME280;5892;43.412;24.612;2023-05-24T10:15:52;99819.66;;;27.65;41.31
11672;BME280;5892;43.412;24.612;2023-05-24T10:18:20;99816.75;;;27.32;40.69
11672;BME280;5892;43.412;24.612;2023-05-24T10:20:47;99818.16;;;27.60;41.07
11672;BME280;5892;43.412;24.612;2023-05-24T10:23:19;99813.25;;;27.97;40.76
11672;BME280;5892;43.412;24.612;2023-05-24T10:25:50;99816.97;;;28.26;40.30
11672;BME280;5892;43.412;24.612;2023-05-24T10:28:18;99807.72;;;28.26;39.60
11672;BME280;5892;43.412;24.612;2023-05-24T10:30:55;99809.03;;;28.66;38.98
11672;BME280;5892;43.412;24.612;2023-05-24T10:33:27;99802.94;;;28.96;38.07
11672;BME280;5892;43.412;24.612;2023-05-24T10:35:56;99806.34;;;29.04;36.66
11672;BME280;5892;43.412;24.612;2023-05-24T10:38:23;99779.25;;;29.06;37.01
11672;BME280;5892;43.412;24.612;2023-05-24T10:40:50;99785.38;;;29.18;36.25
11672;BME280;5892;43.412;24.612;2023-05-24T10:43:17;99781.06;;;29.13;35.88
11672;BME280;5892;43.412;24.612;2023-05-24T10:45:48;99784.22;;;29.02;35.82
11672;BME280;5892;43.412;24.612;2023-05-24T10:48:37;99766.63;;;28.98;38.38
11672;BME280;5892;43.412;24.612;2023-05-24T10:51:30;99779.75;;;29.30;37.57
11672;BME280;5892;43.412;24.612;2023-05-24T10:54:15;99746.81;;;29.40;39.30
11672;BME280;5892;43.412;24.612;2023-05-24T10:56:44;99776.69;;;29.88;36.22
11672;BME280;5892;43.412;24.612;2023-05-24T10:59:30;99770.94;;;29.66;36.61
11672;BME280;5892;43.412;24.612;2023-05-24T11:02:00;99772.66;;;29.51;35.66
11672;BME280;5892;43.412;24.612;2023-05-24T11:04:32;99767.22;;;29.69;35.87
11672;BME280;5892;43.412;24.612;2023-05-24T11:07:03;99759.41;;;29.86;35.69
11672;BME280;5892;43.412;24.612;2023-05-24T11:09:31;99755.44;;;29.83;35.51
11672;BME280;5892;43.412;24.612;2023-05-24T11:12:03;99765.63;;;29.94;35.91
11672;BME280;5892;43.412;24.612;2023-05-24T11:14:36;99765.97;;;29.70;35.34
11672;BME280;5892;43.412;24.612;2023-05-24T11:17:04;99760.31;;;29.58;36.70
11672;BME280;5892;43.412;24.612;2023-05-24T11:19:35;99753.13;;;29.44;37.34
11672;BME280;5892;43.412;24.612;2023-05-24T11:22:05;99758.88;;;29.40;38.83
11672;BME280;5892;43.412;24.612;2023-05-24T11:24:33;99758.41;;;29.29;37.42
11672;BME280;5892;43.412;24.612;2023-05-24T11:27:01;99739.72;;;28.81;37.05
11672;BME280;5892;43.412;24.612;2023-05-24T11:29:28;99740.41;;;28.85;37.10
11672;BME280;5892;43.412;24.612;2023-05-24T11:31:56;99712.44;;;28.78;37.46
11672;BME280;5892;43.412;24.612;2023-05-24T11:34:29;99734.75;;;28.85;36.51
11672;BME280;5892;43.412;24.612;2023-05-24T11:36:58;99744.34;;;28.75;34.40
11672;BME280;5892;43.412;24.612;2023-05-24T11:39:28;99740.63;;;28.78;34.32
11672;BME280;5892;43.412;24.612;2023-05-24T11:41:55;99740.50;;;28.53;34.93
11672;BME280;5892;43.412;24.612;2023-05-24T11:44:22;99729.72;;;28.64;35.37
11672;BME280;5892;43.412;24.612;2023-05-24T11:46:56;99704.22;;;27.97;35.81
11672;BME280;5892;43.412;24.612;2023-05-24T11:49:23;99728.59;;;27.88;36.75
11672;BME280;5892;43.412;24.612;2023-05-24T11:51:52;99725.28;;;27.60;37.78
11672;BME280;5892;43.412;24.612;2023-05-24T11:54:21;99732.72;;;27.99;37.43
11672;BME280;5892;43.412;24.612;2023-05-24T11:56:48;99718.44;;;28.06;38.56
11672;BME280;5892;43.412;24.612;2023-05-24T11:59:17;99724.53;;;28.21;38.38
11672;BME280;5892;43.412;24.612;2023-05-24T12:01:47;99727.97;;;28.12;37.22
11672;BME280;5892;43.412;24.612;2023-05-24T12:04:14;99715.66;;;27.25;38.89
11672;BME280;5892;43.412;24.612;2023-05-24T12:06:43;99722.91;;;27.07;39.55
11672;BME280;5892;43.412;24.612;2023-05-24T12:09:11;99697.31;;;27.01;39.14
11672;BME280;5892;43.412;24.612;2023-05-24T12:11:42;99724.63;;;27.20;38.68
11672;BME280;5892;43.412;24.612;2023-05-24T12:14:12;99709.53;;;27.47;39.63
11672;BME280;5892;43.412;24.612;2023-05-24T12:16:41;99707.56;;;27.92;37.99
11672;BME280;5892;43.412;24.612;2023-05-24T12:19:12;99705.13;;;28.23;36.35
11672;BME280;5892;43.412;24.612;2023-05-24T12:21:40;99697.84;;;28.26;37.28
11672;BME280;5892;43.412;24.612;2023-05-24T12:24:08;99687.63;;;28.44;36.24
11672;BME280;5892;43.412;24.612;2023-05-24T12:26:45;99654.81;;;28.38;35.44
11672;BME280;5892;43.412;24.612;2023-05-24T12:29:13;99691.81;;;28.94;35.41
11672;BME280;5892;43.412;24.612;2023-05-24T12:31:40;99693.78;;;28.68;35.53
11672;BME280;5892;43.412;24.612;2023-05-24T12:34:10;99684.25;;;28.78;35.70
11672;BME280;5892;43.412;24.612;2023-05-24T12:36:38;99684.94;;;29.20;34.46
11672;BME280;5892;43.412;24.612;2023-05-24T12:39:17;99669.59;;;29.34;34.33
11672;BME280;5892;43.412;24.612;2023-05-24T12:41:52;99652.19;;;29.23;34.04
11672;BME280;5892;43.412;24.612;2023-05-24T12:44:23;99680.88;;;29.34;35.04
11672;BME280;5892;43.412;24.612;2023-05-24T12:46:52;99671.03;;;29.00;34.46
11672;BME280;5892;43.412;24.612;2023-05-24T12:49:20;99642.38;;;28.89;34.80
11672;BME280;5892;43.412;24.612;2023-05-24T12:51:48;99667.09;;;28.98;35.64
11672;BME280;5892;43.412;24.612;2023-05-24T12:54:16;99676.78;;;28.84;34.14
11672;BME280;5892;43.412;24.612;2023-05-24T12:56:43;99676.22;;;29.02;34.51
11672;BME280;5892;43.412;24.612;2023-05-24T12:59:11;99666.19;;;28.88;34.02
11672;BME280;5892;43.412;24.612;2023-05-24T13:01:39;99660.56;;;28.88;34.27
11672;BME280;5892;43.412;24.612;2023-05-24T13:04:06;99664.50;;;28.78;33.67
11672;BME280;5892;43.412;24.612;2023-05-24T13:06:35;99657.69;;;28.21;34.22